createdAt,value
2022-10-15T00:05:14.673Z,96871.17
2022-10-15T00:15:18.637Z,96862.81
2022-10-15T00:25:22.209Z,96854.20
2022-10-15T00:35:25.891Z,96845.96
2022-10-15T00:45:29.539Z,96838.38
2022-10-15T00:55:36.784Z,96835.91
2022-10-15T01:05:41.271Z,96830.64
2022-10-15T01:15:57.950Z,96817.88
2022-10-15T01:26:25.435Z,96806.95
2022-10-15T01:36:31.968Z,96805.80
2022-10-15T01:46:59.388Z,96802.74
2022-10-15T01:57:04.756Z,96802.27
2022-10-15T02:07:48.459Z,96789.28
2022-10-15T02:18:36.686Z,96790.94
2022-10-15T02:28:45.702Z,96782.73
2022-10-15T02:38:52.469Z,96777.55
2022-10-15T02:48:56.024Z,96773.30
2022-10-15T02:58:59.796Z,96768.46
2022-10-15T03:09:04.590Z,96763.81
2022-10-15T03:19:08.765Z,96753.18
2022-10-15T03:29:12.839Z,96758.08
2022-10-15T03:39:28.494Z,96758.45
2022-10-15T03:49:34.913Z,96757.83
2022-10-15T03:59:39.662Z,96751.73
2022-10-15T04:09:43.669Z,96733.81
2022-10-15T04:19:58.687Z,96735.38
2022-10-15T04:30:02.776Z,96726.56
2022-10-15T04:40:08.690Z,96726.34
2022-10-15T04:50:12.668Z,96732.92
2022-10-15T05:00:35.254Z,96736.52
2022-10-15T05:11:14.330Z,96736.46
2022-10-15T05:21:19.321Z,96728.48
2022-10-15T05:31:29.627Z,96730.77
2022-10-15T05:41:40.569Z,96723.97
2022-10-15T05:51:45.429Z,96716.98
2022-10-15T06:01:55.301Z,96709.38
2022-10-15T06:11:59.047Z,96711.21
2022-10-15T06:22:03.326Z,96723.00
2022-10-15T06:32:10.995Z,96733.83
2022-10-15T06:42:19.756Z,96742.81
2022-10-15T06:52:25.875Z,96757.94
2022-10-15T07:02:30.265Z,96758.55
2022-10-15T07:12:35.560Z,96753.91
2022-10-15T07:22:39.341Z,96752.23
2022-10-15T07:32:46.365Z,96754.27
2022-10-15T07:42:54.852Z,96761.09
2022-10-15T07:52:58.612Z,96759.90
2022-10-15T08:03:02.579Z,96762.76
2022-10-15T08:13:06.171Z,96764.05
2022-10-15T08:23:16.827Z,96760.53
2022-10-15T08:33:20.493Z,96760.99
2022-10-15T08:43:42.994Z,96767.11
2022-10-15T08:53:58.994Z,96765.33
2022-10-15T09:04:16.977Z,96766.61
2022-10-15T09:14:24.317Z,96771.98
2022-10-15T09:24:31.047Z,96773.70
2022-10-15T09:34:51.403Z,96774.92
2022-10-15T09:44:59.260Z,96768.67
2022-10-15T09:55:17.499Z,96775.15
2022-10-15T10:05:33.131Z,96776.04
2022-10-15T10:15:42.805Z,96774.91
2022-10-15T10:25:47.143Z,96764.58
2022-10-15T10:35:52.157Z,96763.50
2022-10-15T10:46:17.135Z,96760.75
2022-10-15T10:56:30.825Z,96770.23
2022-10-15T11:07:13.114Z,96770.77
2022-10-15T11:17:28.951Z,96774.63
2022-10-15T11:27:54.757Z,96766.35
2022-10-15T11:38:23.951Z,96762.93
2022-10-15T11:48:54.827Z,96755.37
2022-10-15T11:59:18.384Z,96749.30
2022-10-15T12:09:30.195Z,96742.83
2022-10-15T12:19:59.541Z,96737.42
2022-10-15T12:30:03.526Z,96734.90
2022-10-15T12:40:24.193Z,96735.52
2022-10-15T12:50:31.724Z,96753.27
2022-10-15T13:00:39.892Z,96753.00
2022-10-15T13:10:55.433Z,96747.86
2022-10-15T13:31:30.436Z,96728.80
2022-10-15T13:41:42.748Z,96724.56
2022-10-15T13:51:51.540Z,96727.88
2022-10-15T14:02:01.877Z,96733.41
2022-10-15T14:12:07.866Z,96738.90
2022-10-15T14:22:18.669Z,96743.66
2022-10-15T14:32:30.251Z,96744.42
2022-10-15T14:42:35.041Z,96741.05
2022-10-15T14:52:46.157Z,96750.03
2022-10-15T15:02:50.534Z,96757.69
2022-10-15T15:12:57.652Z,96763.78
2022-10-15T15:23:01.468Z,96771.02
2022-10-15T15:33:06.803Z,96771.70
2022-10-15T15:43:14.982Z,96780.88
2022-10-15T15:53:18.699Z,96782.61
2022-10-15T16:03:22.610Z,96790.34
2022-10-15T16:13:26.771Z,96793.07
2022-10-15T16:23:31.027Z,96799.34
2022-10-15T16:33:34.691Z,96804.32
2022-10-15T16:43:39.393Z,96817.30
2022-10-15T16:53:47.007Z,96833.57
2022-10-15T17:03:51.328Z,96846.91
2022-10-15T17:13:58.484Z,96852.19
2022-10-15T17:24:07.915Z,96862.27
2022-10-15T17:34:13.573Z,96872.17
2022-10-15T17:44:18.159Z,96877.67
2022-10-15T17:54:22.547Z,96886.45
2022-10-15T18:04:29.492Z,96886.94
2022-10-15T18:14:33.963Z,96885.55
2022-10-15T18:24:38.778Z,96887.73
2022-10-15T18:34:44.898Z,96901.15
2022-10-15T18:44:50.056Z,96904.36
2022-10-15T18:54:54.370Z,96902.09
2022-10-15T19:04:59.372Z,96904.81
2022-10-15T19:15:04.064Z,96916.20
2022-10-15T19:25:08.850Z,96926.71
2022-10-15T19:35:13.332Z,96934.55
2022-10-15T19:45:17.841Z,96939.35
2022-10-15T19:55:23.210Z,96944.36
2022-10-15T20:05:28.691Z,96950.39
2022-10-15T20:15:32.787Z,96959.12
2022-10-15T20:25:40.652Z,96981.05
2022-10-15T20:35:44.522Z,96974.61
2022-10-15T20:45:48.603Z,96979.90
2022-10-15T20:55:52.378Z,96986.75
2022-10-15T21:05:56.340Z,96990.91
2022-10-15T21:16:01.545Z,96999.91
2022-10-15T21:26:07.489Z,97011.27
2022-10-15T21:36:15.933Z,97024.96
2022-10-15T21:46:20.107Z,97020.91
2022-10-15T21:56:24.488Z,97028.84
2022-10-15T22:06:28.620Z,97029.27
2022-10-15T22:16:35.549Z,97029.88
2022-10-15T22:26:44.907Z,97025.46
2022-10-15T22:36:48.975Z,97034.27
2022-10-15T22:46:52.948Z,97030.65
2022-10-15T22:56:56.414Z,97040.92
2022-10-15T23:07:00.697Z,97039.70
2022-10-15T23:17:04.477Z,97043.63
2022-10-15T23:27:09.677Z,97059.30
2022-10-15T23:37:13.978Z,97064.20
2022-10-15T23:47:18.025Z,97060.10
2022-10-15T23:57:21.886Z,97062.77
